Time;durP1;ratioP1;P1;durP2;ratioP2;P2;SDS_P1;SDS_P2;PMS_P1;PMS_P2;Temp;Humidity;BMP_temperature;BMP_pressure;BME280_temperature;BME280_humidity;BME280_pressure;Samples;Min_cycle;Max_cycle;Signal;HPM_P1;HPM_P2
2021/03/21 00:00:19;;;;;;;;;;;17.50;54.20;;;;;;4889725;29;19931;-87
2021/03/21 00:02:46;;;;;;;;;;;17.50;54.10;;;;;;4897191;29;19935;-88
2021/03/21 00:05:14;;;;;;;;;;;17.50;54.20;;;;;;4899393;29;20014;-88
2021/03/21 00:07:40;;;;;;;;;;;17.50;54.20;;;;;;4904680;29;20025;-88
2021/03/21 00:10:07;;;;;;;;;;;17.50;54.20;;;;;;4900831;29;20461;-88
2021/03/21 00:12:33;;;;;;;;;;;17.50;54.10;;;;;;4884215;29;20058;-87
2021/03/21 00:14:59;;;;;;;;;;;17.50;54.20;;;;;;4878942;29;19952;-87
2021/03/21 00:17:25;;;;;;;;;;;17.50;54.10;;;;;;4897265;29;20308;-87
2021/03/21 00:19:52;;;;;;;;;;;17.50;54.20;;;;;;4895650;29;19931;-86
2021/03/21 00:22:18;;;;;;;;;;;17.50;54.20;;;;;;4887286;29;19935;-87
2021/03/21 00:24:47;;;;;;;;;;;17.40;54.20;;;;;;4878572;29;19935;-88
2021/03/21 00:27:13;;;;;;;;;;;17.50;54.30;;;;;;4895721;29;19977;-86
2021/03/21 00:29:40;;;;;;;;;;;17.40;54.20;;;;;;4887851;29;19999;-86
2021/03/21 00:32:06;;;;;;;;;;;17.40;54.20;;;;;;4885142;29;20122;-87
2021/03/21 00:34:33;;;;;;;;;;;17.50;54.20;;;;;;4883799;29;19932;-87
2021/03/21 00:36:59;;;;;;;;;;;17.50;54.20;;;;;;4883224;29;19935;-86
2021/03/21 00:39:30;;;;;;;;;;;17.40;54.20;;;;;;4881934;29;20404;-87
2021/03/21 00:41:57;;;;;;;;;;;17.40;54.20;;;;;;4902425;29;19931;-86
2021/03/21 00:44:23;;;;;;;;;;;17.40;54.20;;;;;;4880581;29;19971;-87
2021/03/21 00:46:49;;;;;;;;;;;17.40;54.20;;;;;;4904749;29;20297;-88
2021/03/21 00:49:16;;;;;;;;;;;17.40;54.20;;;;;;4901608;29;20475;-85
2021/03/21 00:51:42;;;;;;;;;;;17.50;54.30;;;;;;4899727;29;20289;-86
2021/03/21 00:54:08;;;;;;;;;;;17.40;54.20;;;;;;4883319;29;19928;-86
2021/03/21 00:56:39;;;;;;;;;;;17.40;54.20;;;;;;4879655;29;19928;-86
2021/03/21 00:59:05;;;;;;;;;;;17.40;54.20;;;;;;4876389;29;19955;-86
2021/03/21 01:01:33;;;;;;;;;;;17.50;54.20;;;;;;4881417;29;19935;-86
2021/03/21 01:04:00;;;;;;;;;;;17.40;54.20;;;;;;4881010;29;19956;-85
2021/03/21 01:06:27;;;;;;;;;;;17.40;54.20;;;;;;4884985;29;19934;-86
2021/03/21 01:08:58;;;;;;;;;;;17.40;54.30;;;;;;4888899;29;19932;-86
2021/03/21 01:11:32;;;;;;;;;;;17.40;54.30;;;;;;4884921;29;19927;-86
2021/03/21 01:13:59;;;;;;;;;;;17.40;54.20;;;;;;4881904;29;20022;-87
2021/03/21 01:16:27;;;;;;;;;;;17.40;54.20;;;;;;4890410;29;19928;-85
2021/03/21 01:18:54;;;;;;;;;;;17.40;54.20;;;;;;4883817;29;19992;-85
2021/03/21 01:21:22;;;;;;;;;;;17.40;54.30;;;;;;4886038;29;20154;-86
2021/03/21 01:23:48;;;;;;;;;;;17.40;54.30;;;;;;4885047;29;20562;-86
2021/03/21 01:26:16;;;;;;;;;;;17.40;54.30;;;;;;4889500;29;19935;-87
2021/03/21 01:28:43;;;;;;;;;;;17.40;54.30;;;;;;4902026;29;19975;-86
2021/03/21 01:31:16;;;;;;;;;;;17.40;54.30;;;;;;4882544;29;19935;-86
2021/03/21 01:33:43;;;;;;;;;;;17.40;54.30;;;;;;4889201;29;19934;-86
2021/03/21 01:36:11;;;;;;;;;;;17.40;54.30;;;;;;4887031;29;20286;-86
2021/03/21 01:38:38;;;;;;;;;;;17.40;54.30;;;;;;4887758;29;20015;-86
2021/03/21 01:41:06;;;;;;;;;;;17.40;54.30;;;;;;4890932;29;19935;-86
2021/03/21 01:43:34;;;;;;;;;;;17.40;54.30;;;;;;4903785;29;20303;-87
2021/03/21 01:46:00;;;;;;;;;;;17.30;54.30;;;;;;4887880;29;19923;-85
2021/03/21 01:48:45;;;;;;;;;;;17.40;54.40;;;;;;4885319;29;19928;-86
2021/03/21 01:51:14;;;;;;;;;;;17.40;54.30;;;;;;4887978;29;19928;-87
2021/03/21 01:53:41;;;;;;;;;;;17.40;54.30;;;;;;4892007;29;20395;-86
2021/03/21 01:56:08;;;;;;;;;;;17.30;54.30;;;;;;4897320;29;19932;-87
2021/03/21 01:58:35;;;;;;;;;;;17.40;54.30;;;;;;4880871;29;19943;-88
2021/03/21 02:01:16;;;;;;;;;;;17.40;54.30;;;;;;4898944;29;19927;-88
2021/03/21 02:03:43;;;;;;;;;;;17.30;54.30;;;;;;4903071;29;20489;-88
2021/03/21 02:06:29;;;;;;;;;;;17.30;54.30;;;;;;4904157;29;19935;-88
2021/03/21 02:09:01;;;;;;;;;;;17.30;54.90;;;;;;4884705;29;19935;-89
2021/03/21 02:11:35;;;;;;;;;;;17.40;54.30;;;;;;4889936;29;19927;-89
2021/03/21 02:14:20;;;;;;;;;;;17.30;54.30;;;;;;4884911;29;19935;-90
2021/03/21 02:16:54;;;;;;;;;;;17.30;54.20;;;;;;4887760;29;19984;-89
2021/03/21 02:19:20;;;;;;;;;;;17.30;54.30;;;;;;4889563;29;19931;-87
2021/03/21 02:21:54;;;;;;;;;;;17.30;54.30;;;;;;4888369;29;19935;-88
2021/03/21 02:24:26;;;;;;;;;;;17.40;54.30;;;;;;4881450;29;19931;-87
2021/03/21 02:27:02;;;;;;;;;;;17.30;54.20;;;;;;4888425;29;19974;-89
2021/03/21 02:29:38;;;;;;;;;;;17.30;54.30;;;;;;4903945;29;19974;-88
2021/03/21 02:32:08;;;;;;;;;;;17.30;54.30;;;;;;4903778;29;19974;-89
2021/03/21 02:34:35;;;;;;;;;;;17.30;54.20;;;;;;4901636;29;20599;-89
2021/03/21 02:37:08;;;;;;;;;;;17.30;54.30;;;;;;4890889;29;20611;-88
2021/03/21 02:39:58;;;;;;;;;;;17.30;54.30;;;;;;4884640;29;19984;-88
2021/03/21 02:42:27;;;;;;;;;;;17.30;54.30;;;;;;4891121;29;20416;-88
2021/03/21 02:45:01;;;;;;;;;;;17.40;54.30;;;;;;4882107;29;19932;-87
2021/03/21 02:47:29;;;;;;;;;;;17.30;54.90;;;;;;4885478;29;19928;-87
2021/03/21 02:50:02;;;;;;;;;;;17.30;54.30;;;;;;4886745;29;19934;-88
2021/03/21 02:52:31;;;;;;;;;;;17.30;54.30;;;;;;4892180;29;19935;-89
2021/03/21 02:55:07;;;;;;;;;;;17.30;54.30;;;;;;4900584;29;19942;-88
2021/03/21 02:57:44;;;;;;;;;;;17.20;54.20;;;;;;4902139;29;19932;-88
2021/03/21 03:00:12;;;;;;;;;;;17.30;54.30;;;;;;4890798;29;19931;-88
2021/03/21 03:02:46;;;;;;;;;;;17.30;54.30;;;;;;4891767;29;19931;-88
2021/03/21 03:05:16;;;;;;;;;;;17.30;54.20;;;;;;4891474;29;19935;-87
2021/03/21 03:07:46;;;;;;;;;;;17.30;54.30;;;;;;4889621;29;19927;-87
2021/03/21 03:10:12;;;;;;;;;;;17.30;54.30;;;;;;4900108;29;19928;-89
2021/03/21 03:12:48;;;;;;;;;;;17.30;54.30;;;;;;4889123;29;19990;-87
2021/03/21 03:15:16;;;;;;;;;;;17.30;54.30;;;;;;4897547;29;21704;-88
2021/03/21 03:17:46;;;;;;;;;;;17.30;54.30;;;;;;4904398;29;20392;-88
2021/03/21 03:20:19;;;;;;;;;;;17.30;54.30;;;;;;4904506;29;19932;-90
2021/03/21 03:23:04;;;;;;;;;;;17.30;54.30;;;;;;4907227;29;19928;-89
2021/03/21 03:25:34;;;;;;;;;;;17.30;54.30;;;;;;4882791;29;20312;-90
2021/03/21 03:28:05;;;;;;;;;;;17.30;54.80;;;;;;4891533;29;20641;-90
2021/03/21 03:30:35;;;;;;;;;;;17.30;54.30;;;;;;4900353;29;20385;-91
2021/03/21 03:33:03;;;;;;;;;;;17.30;54.30;;;;;;4889355;29;19950;-89
2021/03/21 03:35:29;;;;;;;;;;;17.20;54.80;;;;;;4876623;29;19959;-90
2021/03/21 03:37:55;;;;;;;;;;;17.30;54.30;;;;;;4891187;29;19950;-90
2021/03/21 03:40:22;;;;;;;;;;;17.20;54.30;;;;;;4890174;29;19915;-88
2021/03/21 03:43:06;;;;;;;;;;;17.30;54.30;;;;;;4882343;29;20648;-88
2021/03/21 03:45:35;;;;;;;;;;;17.30;54.30;;;;;;4887623;29;19968;-89
2021/03/21 03:48:11;;;;;;;;;;;17.20;54.20;;;;;;4885986;29;19952;-89
2021/03/21 03:50:56;;;;;;;;;;;17.20;54.20;;;;;;4890465;29;19927;-88
2021/03/21 03:53:41;;;;;;;;;;;17.20;54.30;;;;;;4888050;29;19915;-89
2021/03/21 03:56:16;;;;;;;;;;;17.20;54.30;;;;;;4890556;29;19956;-89
2021/03/21 03:58:42;;;;;;;;;;;17.20;54.20;;;;;;4888731;29;19935;-88
2021/03/21 04:01:13;;;;;;;;;;;17.20;54.20;;;;;;4884108;29;19928;-89
2021/03/21 04:03:42;;;;;;;;;;;17.20;54.20;;;;;;4896690;29;19932;-90
2021/03/21 04:06:18;;;;;;;;;;;17.20;54.20;;;;;;4902371;29;20296;-90
2021/03/21 04:09:07;;;;;;;;;;;17.20;54.20;;;;;;4902037;29;19935;-89
2021/03/21 04:11:40;;;;;;;;;;;17.20;54.20;;;;;;4897721;29;19927;-90
2021/03/21 04:14:18;;;;;;;;;;;17.20;54.20;;;;;;4902794;29;20440;-88
2021/03/21 04:17:05;;;;;;;;;;;17.20;54.20;;;;;;4866523;29;19928;-88
2021/03/21 04:19:36;;;;;;;;;;;17.20;54.20;;;;;;4889360;29;19936;-88
2021/03/21 04:22:08;;;;;;;;;;;17.20;54.20;;;;;;4896829;29;19916;-88
2021/03/21 04:24:37;;;;;;;;;;;17.20;54.30;;;;;;4896961;29;19915;-88
2021/03/21 04:27:06;;;;;;;;;;;17.20;54.20;;;;;;4885685;29;19928;-90
2021/03/21 04:29:43;;;;;;;;;;;17.20;54.20;;;;;;4897165;29;19936;-89
2021/03/21 04:32:15;;;;;;;;;;;17.20;54.20;;;;;;4876345;29;20010;-90
2021/03/21 04:34:44;;;;;;;;;;;17.20;54.20;;;;;;4887680;29;19928;-90
2021/03/21 04:37:11;;;;;;;;;;;17.20;54.20;;;;;;4888927;29;19999;-88
2021/03/21 04:39:38;;;;;;;;;;;17.20;54.20;;;;;;4896573;29;19986;-87
2021/03/21 04:42:07;;;;;;;;;;;17.20;54.20;;;;;;4881700;29;19939;-89
2021/03/21 04:44:42;;;;;;;;;;;17.20;54.20;;;;;;4897827;29;20026;-89
2021/03/21 04:47:12;;;;;;;;;;;17.20;54.20;;;;;;4890985;29;20150;-89
2021/03/21 04:49:39;;;;;;;;;;;17.20;54.20;;;;;;4895275;29;20451;-89
2021/03/21 04:52:25;;;;;;;;;;;17.20;54.20;;;;;;4893179;29;19938;-89
2021/03/21 04:54:53;;;;;;;;;;;17.20;54.20;;;;;;4887959;29;19938;-88
2021/03/21 04:57:23;;;;;;;;;;;17.20;54.20;;;;;;4897913;29;20045;-88
2021/03/21 04:59:50;;;;;;;;;;;17.20;54.20;;;;;;4907682;29;20340;-88
2021/03/21 05:02:29;;;;;;;;;;;17.20;54.20;;;;;;4886760;29;19922;-89
2021/03/21 05:05:07;;;;;;;;;;;17.20;54.10;;;;;;4899731;29;19927;-88
2021/03/21 05:07:52;;;;;;;;;;;17.20;54.10;;;;;;4884212;29;20640;-88
2021/03/21 05:10:23;;;;;;;;;;;17.20;54.10;;;;;;4888836;29;19957;-87
2021/03/21 05:13:06;;;;;;;;;;;17.20;54.10;;;;;;4887829;29;19936;-88
2021/03/21 05:15:32;;;;;;;;;;;17.20;54.20;;;;;;4891203;29;20321;-88
2021/03/21 05:18:11;;;;;;;;;;;17.20;54.10;;;;;;4904404;29;19933;-90
2021/03/21 05:20:42;;;;;;;;;;;17.10;54.10;;;;;;4888878;29;19976;-90
2021/03/21 05:23:15;;;;;;;;;;;17.20;54.20;;;;;;4891085;29;19928;-90
2021/03/21 05:26:01;;;;;;;;;;;17.10;54.10;;;;;;4889189;29;19915;-90
2021/03/21 05:28:42;;;;;;;;;;;17.10;54.10;;;;;;4893000;29;20462;-88
2021/03/21 05:31:09;;;;;;;;;;;17.10;54.10;;;;;;4888688;29;19938;-89
2021/03/21 05:33:35;;;;;;;;;;;17.20;54.10;;;;;;4888138;29;19922;-89
2021/03/21 05:36:08;;;;;;;;;;;17.20;54.10;;;;;;4882195;29;19928;-89
2021/03/21 05:38:42;;;;;;;;;;;17.10;54.10;;;;;;4891165;29;19947;-89
2021/03/21 05:41:26;;;;;;;;;;;17.20;54.10;;;;;;4890916;29;19983;-88
2021/03/21 05:43:55;;;;;;;;;;;17.20;54.10;;;;;;4890133;29;19928;-89
2021/03/21 05:46:32;;;;;;;;;;;17.20;54.10;;;;;;4888410;29;20209;-89
2021/03/21 05:48:59;;;;;;;;;;;17.10;54.00;;;;;;4883166;29;19958;-88
2021/03/21 05:51:40;;;;;;;;;;;17.10;54.10;;;;;;4889175;29;19928;-89
2021/03/21 05:54:29;;;;;;;;;;;17.20;54.10;;;;;;4888058;29;19928;-88
2021/03/21 05:57:14;;;;;;;;;;;17.20;54.10;;;;;;4887816;29;19931;-85
2021/03/21 05:59:51;;;;;;;;;;;17.10;54.10;;;;;;4887559;29;19935;-90
2021/03/21 06:02:44;;;;;;;;;;;17.10;54.00;;;;;;4904113;29;20389;-90
2021/03/21 06:05:28;;;;;;;;;;;17.10;54.10;;;;;;4889076;29;20463;-92
2021/03/21 06:07:57;;;;;;;;;;;17.10;54.20;;;;;;4893136;29;19954;-92
2021/03/21 06:10:35;;;;;;;;;;;17.10;54.20;;;;;;4890013;29;19928;-89
2021/03/21 06:13:12;;;;;;;;;;;17.10;54.30;;;;;;4887398;29;20752;-89
2021/03/21 06:15:47;;;;;;;;;;;17.20;54.30;;;;;;4902565;29;19932;-88
2021/03/21 06:18:32;;;;;;;;;;;17.10;54.30;;;;;;4883214;29;19934;-88
2021/03/21 06:21:18;;;;;;;;;;;17.20;54.30;;;;;;4901388;29;19935;-88
2021/03/21 06:23:44;;;;;;;;;;;17.10;54.30;;;;;;4896513;29;19983;-89
2021/03/21 06:26:17;;;;;;;;;;;17.10;54.30;;;;;;4907302;29;20428;-89
2021/03/21 06:28:57;;;;;;;;;;;17.10;54.30;;;;;;4889483;29;19934;-89
2021/03/21 06:31:49;;;;;;;;;;;17.20;54.40;;;;;;4898302;29;19935;-89
2021/03/21 06:34:16;;;;;;;;;;;17.10;54.30;;;;;;4903881;29;19980;-89
2021/03/21 06:36:57;;;;;;;;;;;17.10;54.30;;;;;;4901151;29;19967;-88
2021/03/21 06:39:47;;;;;;;;;;;17.20;54.40;;;;;;4907738;29;20018;-89
2021/03/21 06:42:30;;;;;;;;;;;17.10;54.30;;;;;;4900143;29;19993;-88
2021/03/21 06:45:00;;;;;;;;;;;17.10;54.40;;;;;;4889834;29;20009;-90
2021/03/21 06:47:44;;;;;;;;;;;17.10;54.50;;;;;;4886736;29;19935;-87
2021/03/21 06:50:18;;;;;;;;;;;17.10;54.60;;;;;;4890799;29;19934;-86
2021/03/21 06:53:04;;;;;;;;;;;17.10;54.90;;;;;;4887840;29;19931;-87
2021/03/21 06:55:33;;;;;;;;;;;17.10;55.20;;;;;;4890211;29;19934;-88
2021/03/21 06:58:08;;;;;;;;;;;17.10;55.80;;;;;;4890258;29;19936;-87
2021/03/21 07:01:09;;;;;;;;;;;17.20;55.80;;;;;;4883575;29;19928;-89
2021/03/21 07:03:52;;;;;;;;;;;17.20;56.10;;;;;;4825101;29;19932;-87
2021/03/21 07:06:28;;;;;;;;;;;17.20;56.00;;;;;;4898165;29;19934;-87
2021/03/21 07:09:13;;;;;;;;;;;17.20;55.90;;;;;;4881820;29;19962;-87
2021/03/21 07:11:58;;;;;;;;;;;17.30;55.70;;;;;;4885698;29;20520;-88
2021/03/21 07:14:39;;;;;;;;;;;17.20;55.60;;;;;;4880072;29;20389;-89
2021/03/21 07:17:33;;;;;;;;;;;17.20;55.50;;;;;;4886939;29;20026;-87
2021/03/21 07:20:05;;;;;;;;;;;17.20;55.40;;;;;;4888027;29;19982;-88
2021/03/21 07:22:48;;;;;;;;;;;17.20;55.40;;;;;;4903275;29;19934;-88
2021/03/21 07:25:33;;;;;;;;;;;17.20;55.30;;;;;;4884306;29;19931;-88
2021/03/21 07:28:18;;;;;;;;;;;17.20;55.20;;;;;;4886748;29;20300;-86
2021/03/21 07:30:44;;;;;;;;;;;17.30;55.20;;;;;;4891271;29;21312;-87
2021/03/21 07:33:37;;;;;;;;;;;17.30;55.10;;;;;;4883624;29;20356;-88
2021/03/21 07:36:16;;;;;;;;;;;17.30;55.10;;;;;;4886996;29;19931;-87
2021/03/21 07:38:42;;;;;;;;;;;17.20;55.00;;;;;;4892035;29;20010;-90
2021/03/21 07:41:29;;;;;;;;;;;17.20;54.90;;;;;;4903722;29;19934;-88
2021/03/21 07:44:05;;;;;;;;;;;17.20;55.00;;;;;;4886799;29;19928;-83
2021/03/21 07:46:44;;;;;;;;;;;17.20;54.80;;;;;;4884433;29;19928;-85
2021/03/21 07:49:37;;;;;;;;;;;17.20;54.70;;;;;;4887533;29;19975;-84
2021/03/21 07:52:23;;;;;;;;;;;17.20;54.70;;;;;;4887503;29;19932;-86
2021/03/21 07:54:58;;;;;;;;;;;17.20;54.60;;;;;;4883584;29;20018;-91
2021/03/21 07:57:36;;;;;;;;;;;17.20;54.50;;;;;;4903408;29;19935;-85
2021/03/21 08:00:04;;;;;;;;;;;17.20;54.40;;;;;;4902371;29;20688;-85
2021/03/21 08:02:49;;;;;;;;;;;17.20;54.30;;;;;;4880046;29;19938;-85
2021/03/21 08:05:19;;;;;;;;;;;17.20;54.70;;;;;;4887605;29;19938;-88
2021/03/21 08:07:48;;;;;;;;;;;17.10;54.00;;;;;;4903404;29;20336;-89
2021/03/21 08:10:18;;;;;;;;;;;17.10;53.90;;;;;;4903293;29;19977;-94
2021/03/21 08:12:48;;;;;;;;;;;17.20;54.10;;;;;;4886782;29;19936;-88
2021/03/21 08:15:22;;;;;;;;;;;17.20;54.70;;;;;;4880670;29;19928;-87
2021/03/21 08:17:53;;;;;;;;;;;17.20;55.00;;;;;;4889628;29;19927;-90
2021/03/21 08:20:27;;;;;;;;;;;17.20;54.90;;;;;;4901267;29;19940;-86
2021/03/21 08:22:57;;;;;;;;;;;17.20;55.20;;;;;;4895571;29;19931;-85
2021/03/21 08:25:26;;;;;;;;;;;17.30;55.30;;;;;;4901026;29;19935;-85
2021/03/21 08:27:55;;;;;;;;;;;17.20;55.30;;;;;;4902953;29;20052;-85
2021/03/21 08:30:24;;;;;;;;;;;17.30;55.00;;;;;;4883311;29;19931;-86
2021/03/21 08:32:55;;;;;;;;;;;17.30;54.80;;;;;;4882696;29;19955;-85
2021/03/21 08:35:26;;;;;;;;;;;17.20;54.60;;;;;;4881108;29;19931;-88
2021/03/21 08:37:56;;;;;;;;;;;17.20;54.50;;;;;;4900736;29;19928;-88
2021/03/21 08:40:25;;;;;;;;;;;17.20;54.40;;;;;;4899718;29;20458;-89
2021/03/21 08:42:54;;;;;;;;;;;17.20;54.40;;;;;;4902114;29;20043;-88
2021/03/21 08:45:28;;;;;;;;;;;17.20;54.40;;;;;;4883711;29;19934;-88
2021/03/21 08:48:16;;;;;;;;;;;17.20;54.30;;;;;;4891558;29;20224;-89
2021/03/21 08:51:21;;;;;;;;;;;17.20;54.10;;;;;;4882775;29;19980;-88
2021/03/21 08:53:53;;;;;;;;;;;17.20;53.90;;;;;;4882890;29;20029;-89
2021/03/21 08:56:19;;;;;;;;;;;17.20;53.70;;;;;;4888569;29;20026;-88
2021/03/21 08:58:50;;;;;;;;;;;17.20;53.70;;;;;;4880763;29;19928;-89
2021/03/21 09:01:16;;;;;;;;;;;17.20;53.60;;;;;;4886572;29;19927;-89
2021/03/21 09:03:43;;;;;;;;;;;17.20;53.30;;;;;;4888113;29;19934;-88
2021/03/21 09:06:25;;;;;;;;;;;17.20;53.20;;;;;;4899284;29;19932;-89
2021/03/21 09:08:51;;;;;;;;;;;17.10;53.20;;;;;;4886978;29;19974;-90
2021/03/21 09:11:31;;;;;;;;;;;17.20;53.40;;;;;;4883825;29;19931;-81
2021/03/21 09:14:03;;;;;;;;;;;17.20;53.50;;;;;;4886650;29;19932;-84
2021/03/21 09:16:30;;;;;;;;;;;17.20;53.50;;;;;;4896779;29;19931;-85
2021/03/21 09:19:18;;;;;;;;;;;17.20;53.70;;;;;;4899745;29;19935;-86
2021/03/21 09:21:45;;;;;;;;;;;17.20;53.90;;;;;;4884752;29;19939;-88
2021/03/21 09:24:24;;;;;;;;;;;17.20;53.90;;;;;;4904253;29;19983;-87
2021/03/21 09:26:50;;;;;;;;;;;17.20;54.00;;;;;;4885485;29;20347;-86
2021/03/21 09:29:46;;;;;;;;;;;17.20;54.60;;;;;;4899367;29;19947;-84
2021/03/21 09:32:20;;;;;;;;;;;17.20;54.30;;;;;;4870376;29;19931;-96
2021/03/21 09:34:47;;;;;;;;;;;17.40;54.40;;;;;;4902774;29;19939;-93
2021/03/21 09:37:15;;;;;;;;;;;17.50;54.50;;;;;;4892358;29;20276;-90
2021/03/21 09:40:00;;;;;;;;;;;17.50;54.40;;;;;;4890460;29;20393;-94
2021/03/21 09:42:28;;;;;;;;;;;17.60;54.30;;;;;;4901293;29;19928;-95
2021/03/21 09:44:54;;;;;;;;;;;17.60;54.10;;;;;;4906500;29;19938;-87
2021/03/21 09:47:26;;;;;;;;;;;17.70;54.00;;;;;;4908169;29;19936;-93
2021/03/21 09:50:18;;;;;;;;;;;17.70;53.70;;;;;;4902830;29;19931;-90
2021/03/21 09:53:04;;;;;;;;;;;17.70;53.40;;;;;;4879923;29;20038;-83
2021/03/21 09:55:49;;;;;;;;;;;17.80;53.40;;;;;;4886019;29;19935;-84
2021/03/21 09:58:45;;;;;;;;;;;17.90;53.40;;;;;;4904455;29;19928;-81
2021/03/21 10:01:11;;;;;;;;;;;17.90;53.00;;;;;;4884613;29;20452;-80
2021/03/21 10:03:38;;;;;;;;;;;18.00;52.60;;;;;;4885880;29;20734;-80
2021/03/21 10:06:22;;;;;;;;;;;18.00;52.90;;;;;;4906187;29;19951;-86
2021/03/21 10:09:02;;;;;;;;;;;18.00;52.90;;;;;;4904737;29;19927;-86
2021/03/21 10:11:31;;;;;;;;;;;18.00;52.90;;;;;;4903543;29;20048;-88
2021/03/21 10:14:00;;;;;;;;;;;18.00;53.00;;;;;;4888090;29;19936;-81
2021/03/21 10:16:26;;;;;;;;;;;18.10;53.10;;;;;;4888031;29;19935;-82
2021/03/21 10:18:53;;;;;;;;;;;18.10;53.20;;;;;;4892521;29;19932;-80
2021/03/21 10:21:22;;;;;;;;;;;18.10;52.90;;;;;;4891266;29;19912;-96
2021/03/21 10:24:06;;;;;;;;;;;18.20;52.90;;;;;;5195266;23;20813;-86
2021/03/21 10:26:34;;;;;;;;;;;18.90;51.50;;;;;;4892431;29;19931;-83
2021/03/21 10:29:20;;;;;;;;;;;19.30;50.60;;;;;;4891420;29;19927;-87
2021/03/21 10:31:46;;;;;;;;;;;19.30;50.10;;;;;;4897328;29;19938;-87
2021/03/21 10:34:13;;;;;;;;;;;19.00;50.30;;;;;;4879271;29;19938;-88
2021/03/21 10:36:40;;;;;;;;;;;18.80;51.00;;;;;;4907726;29;19927;-92
2021/03/21 10:39:33;;;;;;;;;;;18.60;51.50;;;;;;4896993;29;20589;-94
2021/03/21 10:42:03;;;;;;;;;;;18.60;51.70;;;;;;4912978;29;19929;-96
2021/03/21 10:47:41;;;;;;;;;;;19.80;49.40;;;;;;4943607;23;19931;-86
2021/03/21 10:50:30;;;;;;;;;;;20.30;48.60;;;;;;4930436;29;19942;-89
2021/03/21 10:53:15;;;;;;;;;;;20.60;47.90;;;;;;4915539;29;20002;-94
2021/03/21 10:56:00;;;;;;;;;;;20.90;47.70;;;;;;4933509;29;20062;-85
2021/03/21 10:58:36;;;;;;;;;;;21.10;47.50;;;;;;4925546;29;19974;-79
2021/03/21 11:01:18;;;;;;;;;;;21.10;47.00;;;;;;4927349;29;19981;-84
2021/03/21 11:04:06;;;;;;;;;;;21.10;47.00;;;;;;4926151;29;19927;-85
2021/03/21 11:06:34;;;;;;;;;;;21.10;47.30;;;;;;4932344;29;19934;-92
2021/03/21 11:09:08;;;;;;;;;;;21.20;47.40;;;;;;4919432;29;19927;-89
2021/03/21 11:11:39;;;;;;;;;;;21.30;47.20;;;;;;4917162;29;20547;-95
2021/03/21 11:14:11;;;;;;;;;;;21.40;46.70;;;;;;4911444;29;19962;-92
2021/03/21 11:16:38;;;;;;;;;;;21.50;46.60;;;;;;4896142;29;19949;-83
2021/03/21 11:19:06;;;;;;;;;;;21.30;46.50;;;;;;4911430;29;19927;-83
2021/03/21 11:21:46;;;;;;;;;;;20.90;47.80;;;;;;4909203;29;20019;-83
2021/03/21 11:24:19;;;;;;;;;;;20.40;47.70;;;;;;4893494;29;20033;-83
2021/03/21 11:26:45;;;;;;;;;;;20.20;48.80;;;;;;4910623;29;19935;-83
2021/03/21 11:29:22;;;;;;;;;;;20.00;49.10;;;;;;4895210;29;19931;-83
2021/03/21 11:31:51;;;;;;;;;;;19.80;48.90;;;;;;4906919;29;19935;-84
2021/03/21 11:34:19;;;;;;;;;;;19.70;49.30;;;;;;4911027;29;19927;-83
2021/03/21 11:36:47;;;;;;;;;;;19.70;49.10;;;;;;4911866;29;20658;-85
2021/03/21 11:39:15;;;;;;;;;;;19.60;48.50;;;;;;4893579;29;19929;-85
2021/03/21 11:41:41;;;;;;;;;;;19.50;48.90;;;;;;4911256;29;19938;-84
2021/03/21 11:44:27;;;;;;;;;;;19.50;49.60;;;;;;4894563;23;19938;-88
2021/03/21 11:47:09;;;;;;;;;;;19.50;49.80;;;;;;4888573;29;20212;-83
2021/03/21 11:49:36;;;;;;;;;;;19.60;49.70;;;;;;4901197;29;19934;-87
2021/03/21 11:52:03;;;;;;;;;;;19.70;49.60;;;;;;4882074;29;19971;-84
2021/03/21 11:54:31;;;;;;;;;;;19.70;49.30;;;;;;4882355;29;19992;-86
2021/03/21 11:57:25;;;;;;;;;;;19.70;49.70;;;;;;4884471;29;19928;-83
2021/03/21 12:00:09;;;;;;;;;;;19.70;49.40;;;;;;4831039;29;20675;-84
2021/03/21 12:02:49;;;;;;;;;;;19.80;49.70;;;;;;4885519;29;19928;-83
2021/03/21 12:05:26;;;;;;;;;;;19.80;49.30;;;;;;4885828;29;19940;-85
2021/03/21 12:08:13;;;;;;;;;;;19.80;49.20;;;;;;4887940;29;19935;-86
2021/03/21 12:10:42;;;;;;;;;;;19.80;48.60;;;;;;4882317;29;20034;-83
2021/03/21 12:13:30;;;;;;;;;;;19.80;48.70;;;;;;4882327;29;19928;-94
2021/03/21 12:15:57;;;;;;;;;;;19.80;49.10;;;;;;4869406;29;19983;-83
2021/03/21 12:18:28;;;;;;;;;;;19.80;48.60;;;;;;4867719;29;20019;-85
2021/03/21 12:20:55;;;;;;;;;;;19.90;49.00;;;;;;4871110;29;19955;-85
2021/03/21 12:23:25;;;;;;;;;;;19.80;48.90;;;;;;4851671;29;19932;-82
2021/03/21 12:26:02;;;;;;;;;;;19.90;48.90;;;;;;4868147;29;19932;-87
2021/03/21 12:28:33;;;;;;;;;;;19.90;49.30;;;;;;4880427;29;19936;-93
2021/03/21 12:31:05;;;;;;;;;;;19.90;48.80;;;;;;4865621;29;19937;-80
2021/03/21 12:36:08;;;;;;;;;;;19.90;48.60;;;;;;4897722;29;19931;-90
2021/03/21 12:38:37;;;;;;;;;;;19.90;48.10;;;;;;4874571;29;20047;-93
2021/03/21 12:41:22;;;;;;;;;;;19.90;48.80;;;;;;4887683;29;19938;-82
2021/03/21 12:44:07;;;;;;;;;;;20.00;49.60;;;;;;4872711;29;20019;-95
2021/03/21 12:46:48;;;;;;;;;;;19.90;48.90;;;;;;4888076;29;19932;-81
2021/03/21 12:49:33;;;;;;;;;;;19.90;48.70;;;;;;4889803;29;20296;-81
2021/03/21 12:52:01;;;;;;;;;;;19.90;49.50;;;;;;4887938;29;19932;-94
2021/03/21 12:54:28;;;;;;;;;;;19.90;48.80;;;;;;4874855;29;19979;-87
2021/03/21 12:56:54;;;;;;;;;;;19.80;48.70;;;;;;4871857;29;20039;-85
2021/03/21 12:59:21;;;;;;;;;;;19.80;48.70;;;;;;4879281;29;19963;-86
2021/03/21 13:01:49;;;;;;;;;;;19.90;48.90;;;;;;5012178;23;19976;-90
2021/03/21 13:04:19;;;;;;;;;;;19.90;49.10;;;;;;4922518;29;20432;-91
2021/03/21 13:06:52;;;;;;;;;;;19.80;48.70;;;;;;4893521;29;19963;-87
2021/03/21 13:09:18;;;;;;;;;;;19.80;49.90;;;;;;4892040;29;19989;-85
2021/03/21 13:11:45;;;;;;;;;;;19.80;49.00;;;;;;4894752;29;20003;-87
2021/03/21 13:14:11;;;;;;;;;;;19.80;48.60;;;;;;4893848;29;19939;-84
2021/03/21 13:16:40;;;;;;;;;;;19.80;48.80;;;;;;4893483;29;19919;-88
2021/03/21 13:19:06;;;;;;;;;;;19.80;48.80;;;;;;4889498;29;19943;-85
2021/03/21 13:21:33;;;;;;;;;;;19.80;48.50;;;;;;4889381;29;20026;-90
2021/03/21 13:24:01;;;;;;;;;;;19.80;48.30;;;;;;4888417;29;19987;-85
2021/03/21 13:26:28;;;;;;;;;;;19.80;49.00;;;;;;4888785;29;19963;-86
2021/03/21 13:28:54;;;;;;;;;;;19.80;48.90;;;;;;4890201;29;19931;-84
2021/03/21 13:31:20;;;;;;;;;;;19.70;47.90;;;;;;4903045;29;20026;-85
2021/03/21 13:33:47;;;;;;;;;;;19.60;47.60;;;;;;4892081;29;19942;-85
2021/03/21 13:36:13;;;;;;;;;;;19.50;47.80;;;;;;4889333;29;19947;-84
2021/03/21 13:38:39;;;;;;;;;;;19.60;47.60;;;;;;4888737;29;20392;-84
2021/03/21 13:41:20;;;;;;;;;;;19.60;47.90;;;;;;4890977;29;19955;-88
2021/03/21 13:43:46;;;;;;;;;;;19.60;48.00;;;;;;4889273;29;20604;-85
2021/03/21 13:46:12;;;;;;;;;;;19.50;47.70;;;;;;4885951;29;20058;-87
2021/03/21 13:48:39;;;;;;;;;;;19.50;48.00;;;;;;4888608;29;19931;-85
2021/03/21 13:51:07;;;;;;;;;;;19.50;47.80;;;;;;4902716;29;19947;-84
2021/03/21 13:53:33;;;;;;;;;;;19.50;47.90;;;;;;4890586;29;19928;-83
2021/03/21 13:56:01;;;;;;;;;;;19.50;49.00;;;;;;4885184;29;19932;-84
2021/03/21 13:58:27;;;;;;;;;;;19.60;49.00;;;;;;4891629;29;19979;-84
2021/03/21 14:00:54;;;;;;;;;;;19.50;49.20;;;;;;4890533;29;20181;-85
2021/03/21 14:03:21;;;;;;;;;;;19.60;49.70;;;;;;4909727;28;20398;-82
2021/03/21 14:05:48;;;;;;;;;;;19.60;50.00;;;;;;4908085;29;20296;-84
2021/03/21 14:08:15;;;;;;;;;;;19.60;50.00;;;;;;4908212;28;20021;-83
2021/03/21 14:10:41;;;;;;;;;;;19.60;50.10;;;;;;4890781;29;19970;-84
2021/03/21 14:13:08;;;;;;;;;;;19.60;50.50;;;;;;4909787;28;20038;-89
2021/03/21 14:15:36;;;;;;;;;;;19.60;50.40;;;;;;4891841;29;19931;-84
2021/03/21 14:18:03;;;;;;;;;;;19.60;50.90;;;;;;4888893;29;19935;-80
2021/03/21 14:20:32;;;;;;;;;;;19.60;50.50;;;;;;4891135;29;19931;-81
2021/03/21 14:22:59;;;;;;;;;;;19.60;50.40;;;;;;4909049;29;19923;-83
2021/03/21 14:25:26;;;;;;;;;;;19.60;50.90;;;;;;4889942;29;19938;-82
2021/03/21 14:27:54;;;;;;;;;;;19.60;51.20;;;;;;4904818;29;19934;-81
2021/03/21 14:30:26;;;;;;;;;;;19.60;51.10;;;;;;4873657;29;20029;-82
2021/03/21 14:32:53;;;;;;;;;;;19.60;51.10;;;;;;4900561;28;19951;-82
2021/03/21 14:35:21;;;;;;;;;;;19.70;51.00;;;;;;4892683;29;19998;-90
2021/03/21 14:38:03;;;;;;;;;;;19.60;50.70;;;;;;4891748;29;19926;-83
2021/03/21 14:40:29;;;;;;;;;;;19.60;50.30;;;;;;4906272;29;20387;-83
2021/03/21 14:42:56;;;;;;;;;;;19.60;49.70;;;;;;4897448;29;19938;-84
2021/03/21 14:45:23;;;;;;;;;;;19.60;49.60;;;;;;4904344;28;21342;-83
2021/03/21 14:47:50;;;;;;;;;;;19.70;49.90;;;;;;4889880;29;19931;-84
2021/03/21 14:50:19;;;;;;;;;;;19.70;50.00;;;;;;4892532;29;19915;-85
2021/03/21 14:52:47;;;;;;;;;;;19.80;49.50;;;;;;4892102;29;19935;-93
2021/03/21 14:55:15;;;;;;;;;;;19.80;49.50;;;;;;4908533;29;19987;-92